sensor_id;sensor_type;location;lat;lon;timestamp;pressure;altitude;pressure_sealevel;temperature;humidity
16190;BME280;41754;51.498;7.540;2023-03-15T00:02:13;99832.75;;;3.54;52.80
16190;BME280;41754;51.498;7.540;2023-03-15T00:04:41;99826.97;;;3.76;52.94
16190;BME280;41754;51.498;7.540;2023-03-15T00:07:09;99821.59;;;3.61;53.57
16190;BME280;41754;51.498;7.540;2023-03-15T00:09:37;99828.31;;;3.89;53.13
16190;BME280;41754;51.498;7.540;2023-03-15T00:12:05;99836.16;;;4.00;52.66
16190;BME280;41754;51.498;7.540;2023-03-15T00:14:35;99863.19;;;3.56;54.13
16190;BME280;41754;51.498;7.540;2023-03-15T00:17:03;99886.09;;;3.40;54.54
16190;BME280;41754;51.498;7.540;2023-03-15T00:19:31;99907.31;;;3.12;56.84
16190;BME280;41754;51.498;7.540;2023-03-15T00:21:59;99894.03;;;2.23;63.68
16190;BME280;41754;51.498;7.540;2023-03-15T00:24:26;99880.53;;;2.48;66.49
16190;BME280;41754;51.498;7.540;2023-03-15T00:26:54;99873.97;;;2.34;65.91
16190;BME280;41754;51.498;7.540;2023-03-15T00:29:22;99871.19;;;2.19;67.97
16190;BME280;41754;51.498;7.540;2023-03-15T00:31:51;99874.53;;;2.41;67.77
16190;BME280;41754;51.498;7.540;2023-03-15T00:34:20;99867.00;;;2.58;67.33
16190;BME280;41754;51.498;7.540;2023-03-15T00:36:52;99865.56;;;2.41;68.73
16190;BME280;41754;51.498;7.540;2023-03-15T00:39:20;99875.56;;;2.30;69.48
16190;BME280;41754;51.498;7.540;2023-03-15T00:41:51;99872.31;;;2.33;68.79
16190;BME280;41754;51.498;7.540;2023-03-15T00:44:23;99873.44;;;2.37;69.26
16190;BME280;41754;51.498;7.540;2023-03-15T00:46:53;99872.66;;;2.57;68.47
16190;BME280;41754;51.498;7.540;2023-03-15T00:49:21;99883.16;;;2.23;69.65
16190;BME280;41754;51.498;7.540;2023-03-15T00:51:48;99876.75;;;2.59;68.08
16190;BME280;41754;51.498;7.540;2023-03-15T00:54:16;99880.31;;;2.80;67.21
16190;BME280;41754;51.498;7.540;2023-03-15T00:56:44;99879.19;;;2.51;66.95
16190;BME280;41754;51.498;7.540;2023-03-15T00:59:12;99874.06;;;2.75;67.89
16190;BME280;41754;51.498;7.540;2023-03-15T01:01:40;99874.34;;;2.88;66.62
16190;BME280;41754;51.498;7.540;2023-03-15T01:04:11;99876.53;;;2.71;66.59
16190;BME280;41754;51.498;7.540;2023-03-15T01:06:39;99875.22;;;2.99;66.03
16190;BME280;41754;51.498;7.540;2023-03-15T01:09:08;99875.19;;;2.89;66.42
16190;BME280;41754;51.498;7.540;2023-03-15T01:11:36;99878.44;;;2.71;66.78
16190;BME280;41754;51.498;7.540;2023-03-15T01:14:03;99880.50;;;2.38;67.61
16190;BME280;41754;51.498;7.540;2023-03-15T01:16:34;99878.25;;;2.20;68.73
16190;BME280;41754;51.498;7.540;2023-03-15T01:19:02;99888.63;;;2.33;69.24
16190;BME280;41754;51.498;7.540;2023-03-15T01:21:32;99888.88;;;2.26;70.04
16190;BME280;41754;51.498;7.540;2023-03-15T01:23:59;99878.34;;;2.40;69.72
16190;BME280;41754;51.498;7.540;2023-03-15T01:26:27;99885.84;;;2.18;70.70
16190;BME280;41754;51.498;7.540;2023-03-15T01:28:55;99889.69;;;2.27;71.23
16190;BME280;41754;51.498;7.540;2023-03-15T01:31:25;99896.97;;;2.16;71.87
16190;BME280;41754;51.498;7.540;2023-03-15T01:33:55;99898.41;;;2.34;72.33
16190;BME280;41754;51.498;7.540;2023-03-15T01:36:25;99899.00;;;2.46;71.57
16190;BME280;41754;51.498;7.540;2023-03-15T01:38:55;99894.97;;;2.59;71.60
16190;BME280;41754;51.498;7.540;2023-03-15T01:41:28;99904.44;;;2.56;71.76
16190;BME280;41754;51.498;7.540;2023-03-15T01:43:55;99911.41;;;2.22;73.60
16190;BME280;41754;51.498;7.540;2023-03-15T01:46:26;99912.84;;;1.87;75.10
16190;BME280;41754;51.498;7.540;2023-03-15T01:49:04;99921.19;;;2.33;74.97
16190;BME280;41754;51.498;7.540;2023-03-15T01:51:40;99923.28;;;2.11;76.21
16190;BME280;41754;51.498;7.540;2023-03-15T01:54:14;99923.84;;;2.18;76.74
16190;BME280;41754;51.498;7.540;2023-03-15T01:56:48;99917.31;;;2.09;77.29
16190;BME280;41754;51.498;7.540;2023-03-15T01:59:21;99912.81;;;2.35;77.24
16190;BME280;41754;51.498;7.540;2023-03-15T02:04:47;99919.00;;;2.30;77.62
16190;BME280;41754;51.498;7.540;2023-03-15T02:07:20;99926.59;;;2.23;77.50
16190;BME280;41754;51.498;7.540;2023-03-15T02:09:56;99918.47;;;2.23;77.82
16190;BME280;41754;51.498;7.540;2023-03-15T02:12:29;99922.81;;;2.29;78.06
16190;BME280;41754;51.498;7.540;2023-03-15T02:14:59;99935.72;;;2.07;78.87
16190;BME280;41754;51.498;7.540;2023-03-15T02:17:33;99933.53;;;2.04;79.46
16190;BME280;41754;51.498;7.540;2023-03-15T02:20:11;99946.03;;;2.05;79.54
16190;BME280;41754;51.498;7.540;2023-03-15T02:22:48;99932.72;;;2.60;79.99
16190;BME280;41754;51.498;7.540;2023-03-15T02:25:22;99948.06;;;1.82;79.43
16190;BME280;41754;51.498;7.540;2023-03-15T02:27:54;99942.50;;;2.67;77.76
16190;BME280;41754;51.498;7.540;2023-03-15T02:30:23;99934.75;;;1.81;79.42
16190;BME280;41754;51.498;7.540;2023-03-15T02:32:51;99948.66;;;1.89;79.93
16190;BME280;41754;51.498;7.540;2023-03-15T02:35:23;99947.47;;;2.85;78.19
16190;BME280;41754;51.498;7.540;2023-03-15T02:37:52;99948.56;;;2.94;75.18
16190;BME280;41754;51.498;7.540;2023-03-15T02:40:21;99948.38;;;2.43;76.71
16190;BME280;41754;51.498;7.540;2023-03-15T02:42:51;99956.25;;;2.45;76.95
16190;BME280;41754;51.498;7.540;2023-03-15T02:45:22;99951.16;;;2.48;76.93
16190;BME280;41754;51.498;7.540;2023-03-15T02:47:50;99952.66;;;2.24;77.66
16190;BME280;41754;51.498;7.540;2023-03-15T02:50:18;99965.38;;;2.18;78.19
16190;BME280;41754;51.498;7.540;2023-03-15T02:52:46;99972.50;;;2.29;79.01
16190;BME280;41754;51.498;7.540;2023-03-15T02:55:14;99970.09;;;2.38;78.70
16190;BME280;41754;51.498;7.540;2023-03-15T02:57:45;99972.22;;;2.31;78.03
16190;BME280;41754;51.498;7.540;2023-03-15T03:00:14;99970.72;;;2.55;76.91
16190;BME280;41754;51.498;7.540;2023-03-15T03:02:46;99974.34;;;2.19;77.54
16190;BME280;41754;51.498;7.540;2023-03-15T03:05:15;99973.41;;;2.55;76.90
16190;BME280;41754;51.498;7.540;2023-03-15T03:07:44;99977.72;;;2.41;76.80
16190;BME280;41754;51.498;7.540;2023-03-15T03:10:15;99974.06;;;2.20;77.80
16190;BME280;41754;51.498;7.540;2023-03-15T03:12:55;99981.44;;;2.30;78.36
16190;BME280;41754;51.498;7.540;2023-03-15T03:15:32;99980.91;;;2.28;78.39
16190;BME280;41754;51.498;7.540;2023-03-15T03:18:01;99996.75;;;2.46;77.92
16190;BME280;41754;51.498;7.540;2023-03-15T03:20:29;99989.66;;;2.40;77.39
16190;BME280;41754;51.498;7.540;2023-03-15T03:22:59;99991.25;;;1.89;78.39
16190;BME280;41754;51.498;7.540;2023-03-15T03:25:32;99990.19;;;1.90;80.05
16190;BME280;41754;51.498;7.540;2023-03-15T03:28:02;99997.34;;;2.06;79.80
16190;BME280;41754;51.498;7.540;2023-03-15T03:30:30;100004.88;;;2.41;79.07
16190;BME280;41754;51.498;7.540;2023-03-15T03:32:58;100005.53;;;2.69;78.11
16190;BME280;41754;51.498;7.540;2023-03-15T03:35:28;100011.50;;;2.66;77.68
16190;BME280;41754;51.498;7.540;2023-03-15T03:37:58;100018.16;;;2.95;76.79
16190;BME280;41754;51.498;7.540;2023-03-15T03:40:32;100022.47;;;2.86;76.29
16190;BME280;41754;51.498;7.540;2023-03-15T03:43:03;100025.72;;;2.88;75.32
16190;BME280;41754;51.498;7.540;2023-03-15T03:45:31;100030.25;;;2.67;76.63
16190;BME280;41754;51.498;7.540;2023-03-15T03:47:59;100031.16;;;2.83;76.37
16190;BME280;41754;51.498;7.540;2023-03-15T03:50:30;100047.06;;;2.64;76.41
16190;BME280;41754;51.498;7.540;2023-03-15T03:52:58;100044.16;;;2.76;76.18
16190;BME280;41754;51.498;7.540;2023-03-15T03:55:31;100055.06;;;2.86;75.64
16190;BME280;41754;51.498;7.540;2023-03-15T03:57:59;100049.16;;;2.99;75.81
16190;BME280;41754;51.498;7.540;2023-03-15T04:00:47;100047.53;;;2.98;75.75
16190;BME280;41754;51.498;7.540;2023-03-15T04:03:15;100058.16;;;2.57;76.82
16190;BME280;41754;51.498;7.540;2023-03-15T04:05:48;100062.13;;;2.87;76.26
16190;BME280;41754;51.498;7.540;2023-03-15T04:08:21;100067.59;;;2.92;75.18
16190;BME280;41754;51.498;7.540;2023-03-15T04:10:50;100068.06;;;2.74;75.57
16190;BME280;41754;51.498;7.540;2023-03-15T04:13:19;100071.72;;;2.47;75.67
16190;BME280;41754;51.498;7.540;2023-03-15T04:15:48;100066.97;;;2.80;75.98
16190;BME280;41754;51.498;7.540;2023-03-15T04:18:17;100083.97;;;3.02;75.01
16190;BME280;41754;51.498;7.540;2023-03-15T04:20:46;100076.06;;;3.01;74.65
16190;BME280;41754;51.498;7.540;2023-03-15T04:23:18;100070.19;;;2.67;75.91
16190;BME280;41754;51.498;7.540;2023-03-15T04:25:58;100084.56;;;2.67;75.92
16190;BME280;41754;51.498;7.540;2023-03-15T04:28:52;100080.69;;;2.53;76.12
16190;BME280;41754;51.498;7.540;2023-03-15T04:31:26;100079.72;;;2.74;75.75
16190;BME280;41754;51.498;7.540;2023-03-15T04:34:04;100086.03;;;2.85;75.18
16190;BME280;41754;51.498;7.540;2023-03-15T04:36:52;100083.81;;;2.77;75.05
16190;BME280;41754;51.498;7.540;2023-03-15T04:39:53;100085.28;;;2.47;75.09
16190;BME280;41754;51.498;7.540;2023-03-15T04:42:43;100092.78;;;2.82;74.50
16190;BME280;41754;51.498;7.540;2023-03-15T04:45:37;100097.63;;;2.70;74.31
16190;BME280;41754;51.498;7.540;2023-03-15T04:48:34;100108.88;;;2.84;73.97
16190;BME280;41754;51.498;7.540;2023-03-15T04:51:25;100102.84;;;2.82;74.50
16190;BME280;41754;51.498;7.540;2023-03-15T04:54:13;100103.06;;;2.70;74.65
16190;BME280;41754;51.498;7.540;2023-03-15T04:57:11;100100.38;;;2.75;74.71
16190;BME280;41754;51.498;7.540;2023-03-15T04:59:39;100105.22;;;2.68;74.74
16190;BME280;41754;51.498;7.540;2023-03-15T05:02:26;100108.09;;;2.46;75.19
16190;BME280;41754;51.498;7.540;2023-03-15T05:05:17;100113.84;;;2.18;75.22
16190;BME280;41754;51.498;7.540;2023-03-15T05:07:53;100108.75;;;2.26;75.07
16190;BME280;41754;51.498;7.540;2023-03-15T05:10:41;100118.44;;;2.49;75.00
16190;BME280;41754;51.498;7.540;2023-03-15T05:13:31;100126.25;;;2.41;75.08
16190;BME280;41754;51.498;7.540;2023-03-15T05:16:13;100132.91;;;2.60;74.69
16190;BME280;41754;51.498;7.540;2023-03-15T05:19:00;100139.63;;;2.52;74.05
16190;BME280;41754;51.498;7.540;2023-03-15T05:21:27;100145.31;;;2.51;73.96
16190;BME280;41754;51.498;7.540;2023-03-15T05:24:18;100144.38;;;2.72;73.37
16190;BME280;41754;51.498;7.540;2023-03-15T05:26:58;100143.44;;;2.56;73.38
16190;BME280;41754;51.498;7.540;2023-03-15T05:29:33;100149.75;;;2.62;73.28
16190;BME280;41754;51.498;7.540;2023-03-15T05:32:25;100159.91;;;2.82;73.01
16190;BME280;41754;51.498;7.540;2023-03-15T05:35:12;100162.41;;;2.88;72.36
16190;BME280;41754;51.498;7.540;2023-03-15T05:38:00;100166.91;;;3.15;71.24
16190;BME280;41754;51.498;7.540;2023-03-15T05:40:47;100166.69;;;3.27;70.68
16190;BME280;41754;51.498;7.540;2023-03-15T05:43:30;100170.66;;;3.04;70.97
16190;BME280;41754;51.498;7.540;2023-03-15T05:46:17;100179.09;;;3.07;70.50
16190;BME280;41754;51.498;7.540;2023-03-15T05:48:57;100176.78;;;3.31;69.19
16190;BME280;41754;51.498;7.540;2023-03-15T05:51:33;100186.91;;;2.94;69.19
16190;BME280;41754;51.498;7.540;2023-03-15T05:54:06;100192.69;;;3.07;68.83
16190;BME280;41754;51.498;7.540;2023-03-15T05:57:11;100211.63;;;2.92;69.24
16190;BME280;41754;51.498;7.540;2023-03-15T05:59:53;100210.22;;;2.84;69.04
16190;BME280;41754;51.498;7.540;2023-03-15T06:02:40;100218.22;;;2.96;68.95
16190;BME280;41754;51.498;7.540;2023-03-15T06:05:29;100219.94;;;2.80;69.03
16190;BME280;41754;51.498;7.540;2023-03-15T06:08:01;100219.44;;;3.21;68.77
16190;BME280;41754;51.498;7.540;2023-03-15T06:10:30;100219.88;;;3.07;68.78
16190;BME280;41754;51.498;7.540;2023-03-15T06:13:04;100229.22;;;3.22;68.72
16190;BME280;41754;51.498;7.540;2023-03-15T06:15:32;100229.91;;;3.02;68.84
16190;BME280;41754;51.498;7.540;2023-03-15T06:18:02;100233.03;;;3.21;68.92
16190;BME280;41754;51.498;7.540;2023-03-15T06:20:30;100240.34;;;3.20;68.74
16190;BME280;41754;51.498;7.540;2023-03-15T06:23:05;100231.50;;;3.40;68.67
16190;BME280;41754;51.498;7.540;2023-03-15T06:25:42;100233.78;;;3.11;68.50
16190;BME280;41754;51.498;7.540;2023-03-15T06:28:11;100244.97;;;3.19;68.14
16190;BME280;41754;51.498;7.540;2023-03-15T06:30:44;100255.41;;;3.33;68.67
16190;BME280;41754;51.498;7.540;2023-03-15T06:33:13;100251.81;;;3.22;69.07
16190;BME280;41754;51.498;7.540;2023-03-15T06:35:42;100260.19;;;3.15;69.24
16190;BME280;41754;51.498;7.540;2023-03-15T06:38:12;100258.00;;;3.17;70.19
16190;BME280;41754;51.498;7.540;2023-03-15T06:40:40;100256.72;;;3.30;70.10
16190;BME280;41754;51.498;7.540;2023-03-15T06:43:08;100265.16;;;3.29;69.63
16190;BME280;41754;51.498;7.540;2023-03-15T06:45:40;100260.78;;;3.23;70.27
16190;BME280;41754;51.498;7.540;2023-03-15T06:48:08;100267.34;;;3.32;70.05
16190;BME280;41754;51.498;7.540;2023-03-15T06:50:38;100269.84;;;3.38;70.27
16190;BME280;41754;51.498;7.540;2023-03-15T06:53:13;100279.91;;;3.43;70.40
16190;BME280;41754;51.498;7.540;2023-03-15T06:55:41;100283.75;;;3.47;70.28
16190;BME280;41754;51.498;7.540;2023-03-15T06:58:09;100287.84;;;3.55;69.87
16190;BME280;41754;51.498;7.540;2023-03-15T07:00:37;100289.06;;;3.22;69.72
16190;BME280;41754;51.498;7.540;2023-03-15T07:03:04;100289.06;;;3.27;69.39
16190;BME280;41754;51.498;7.540;2023-03-15T07:05:32;100286.72;;;3.03;70.54
16190;BME280;41754;51.498;7.540;2023-03-15T07:08:02;100287.38;;;3.15;70.24
16190;BME280;41754;51.498;7.540;2023-03-15T07:10:30;100296.59;;;3.14;69.63
16190;BME280;41754;51.498;7.540;2023-03-15T07:12:58;100296.84;;;3.08;70.04
16190;BME280;41754;51.498;7.540;2023-03-15T07:15:25;100302.47;;;2.96;70.77
16190;BME280;41754;51.498;7.540;2023-03-15T07:17:53;100308.94;;;2.95;70.92
16190;BME280;41754;51.498;7.540;2023-03-15T07:20:21;100310.94;;;3.05;70.92
16190;BME280;41754;51.498;7.540;2023-03-15T07:22:49;100321.41;;;3.23;70.77
16190;BME280;41754;51.498;7.540;2023-03-15T07:25:18;100325.50;;;3.26;69.95
16190;BME280;41754;51.498;7.540;2023-03-15T07:27:49;100330.84;;;3.53;68.94
16190;BME280;41754;51.498;7.540;2023-03-15T07:30:18;100323.63;;;3.73;68.53
16190;BME280;41754;51.498;7.540;2023-03-15T07:32:47;100327.72;;;3.81;66.80
16190;BME280;41754;51.498;7.540;2023-03-15T07:35:15;100337.28;;;3.36;66.92
16190;BME280;41754;51.498;7.540;2023-03-15T07:37:44;100332.31;;;3.70;66.90
16190;BME280;41754;51.498;7.540;2023-03-15T07:40:13;100348.16;;;3.84;66.71
16190;BME280;41754;51.498;7.540;2023-03-15T07:42:43;100342.13;;;3.76;65.89
16190;BME280;41754;51.498;7.540;2023-03-15T07:45:12;100353.78;;;3.67;66.29
16190;BME280;41754;51.498;7.540;2023-03-15T07:47:40;100355.34;;;4.10;65.80
16190;BME280;41754;51.498;7.540;2023-03-15T07:50:09;100357.66;;;4.54;64.23
16190;BME280;41754;51.498;7.540;2023-03-15T07:52:40;100350.81;;;4.41;63.56
16190;BME280;41754;51.498;7.540;2023-03-15T07:55:08;100361.38;;;4.22;63.42
16190;BME280;41754;51.498;7.540;2023-03-15T07:57:36;100358.41;;;4.24;63.69
16190;BME280;41754;51.498;7.540;2023-03-15T08:00:07;100362.13;;;4.02;63.63
16190;BME280;41754;51.498;7.540;2023-03-15T08:02:40;100365.06;;;3.91;64.09
16190;BME280;41754;51.498;7.540;2023-03-15T08:05:08;100368.72;;;4.17;63.98
16190;BME280;41754;51.498;7.540;2023-03-15T08:07:36;100371.31;;;4.59;62.44
16190;BME280;41754;51.498;7.540;2023-03-15T08:10:05;100375.16;;;4.73;63.01
16190;BME280;41754;51.498;7.540;2023-03-15T08:12:33;100388.28;;;4.97;62.53
16190;BME280;41754;51.498;7.540;2023-03-15T08:15:01;100384.38;;;4.67;61.62
16190;BME280;41754;51.498;7.540;2023-03-15T08:17:31;100391.81;;;4.97;60.03
16190;BME280;41754;51.498;7.540;2023-03-15T08:19:59;100412.41;;;4.47;59.68
16190;BME280;41754;51.498;7.540;2023-03-15T08:22:31;100409.06;;;4.20;59.90
16190;BME280;41754;51.498;7.540;2023-03-15T08:24:59;100420.19;;;4.18;61.26
16190;BME280;41754;51.498;7.540;2023-03-15T08:27:27;100426.16;;;4.15;62.29
16190;BME280;41754;51.498;7.540;2023-03-15T08:29:55;100421.06;;;3.82;63.15
16190;BME280;41754;51.498;7.540;2023-03-15T08:32:23;100436.63;;;4.39;62.53
16190;BME280;41754;51.498;7.540;2023-03-15T08:34:52;100422.53;;;4.62;61.36
16190;BME280;41754;51.498;7.540;2023-03-15T08:37:20;100428.31;;;4.76;60.29
16190;BME280;41754;51.498;7.540;2023-03-15T08:39:48;100424.03;;;5.36;58.69
16190;BME280;41754;51.498;7.540;2023-03-15T08:42:23;100433.81;;;5.16;58.19
16190;BME280;41754;51.498;7.540;2023-03-15T08:44:51;100437.34;;;4.97;57.01
16190;BME280;41754;51.498;7.540;2023-03-15T08:47:19;100438.50;;;5.31;56.88
16190;BME280;41754;51.498;7.540;2023-03-15T08:49:47;100443.38;;;5.24;55.15
16190;BME280;41754;51.498;7.540;2023-03-15T08:52:16;100444.78;;;5.37;55.36
16190;BME280;41754;51.498;7.540;2023-03-15T08:54:44;100459.19;;;4.29;56.76
16190;BME280;41754;51.498;7.540;2023-03-15T08:57:12;100464.53;;;4.66;57.71
16190;BME280;41754;51.498;7.540;2023-03-15T08:59:40;100460.69;;;4.62;57.64
16190;BME280;41754;51.498;7.540;2023-03-15T09:02:08;100466.16;;;4.67;57.66
16190;BME280;41754;51.498;7.540;2023-03-15T09:04:37;100474.81;;;5.47;56.50
16190;BME280;41754;51.498;7.540;2023-03-15T09:07:04;100470.91;;;6.19;54.84
16190;BME280;41754;51.498;7.540;2023-03-15T09:09:34;100467.66;;;6.77;52.62
16190;BME280;41754;51.498;7.540;2023-03-15T09:12:02;100470.97;;;6.74;51.05
16190;BME280;41754;51.498;7.540;2023-03-15T09:14:30;100466.28;;;5.99;52.40
16190;BME280;41754;51.498;7.540;2023-03-15T09:16:58;100460.22;;;6.33;52.26
16190;BME280;41754;51.498;7.540;2023-03-15T09:19:26;100472.69;;;6.54;50.46
16190;BME280;41754;51.498;7.540;2023-03-15T09:21:59;100473.56;;;6.39;51.01
16190;BME280;41754;51.498;7.540;2023-03-15T09:24:49;100476.31;;;6.29;51.56
16190;BME280;41754;51.498;7.540;2023-03-15T09:27:18;100479.84;;;6.45;50.87
16190;BME280;41754;51.498;7.540;2023-03-15T09:29:46;100482.66;;;6.09;51.79
16190;BME280;41754;51.498;7.540;2023-03-15T09:32:14;100489.09;;;6.54;50.47
16190;BME280;41754;51.498;7.540;2023-03-15T09:34:41;100492.22;;;6.02;50.33
16190;BME280;41754;51.498;7.540;2023-03-15T09:37:09;100494.19;;;5.66;50.44
16190;BME280;41754;51.498;7.540;2023-03-15T09:39:37;100502.84;;;5.22;51.54
16190;BME280;41754;51.498;7.540;2023-03-15T09:42:12;100503.47;;;5.44;51.89
16190;BME280;41754;51.498;7.540;2023-03-15T09:44:45;100499.97;;;6.64;50.66
16190;BME280;41754;51.498;7.540;2023-03-15T09:47:25;100501.59;;;7.30;48.99
16190;BME280;41754;51.498;7.540;2023-03-15T09:49:58;100501.13;;;8.15;48.02
16190;BME280;41754;51.498;7.540;2023-03-15T09:52:34;100507.97;;;7.88;47.79
16190;BME280;41754;51.498;7.540;2023-03-15T09:55:08;100513.53;;;7.44;46.63
16190;BME280;41754;51.498;7.540;2023-03-15T09:57:42;100514.72;;;6.74;48.14
16190;BME280;41754;51.498;7.540;2023-03-15T10:00:14;100515.31;;;6.60;48.22
16190;BME280;41754;51.498;7.540;2023-03-15T10:02:53;100506.09;;;7.06;48.55
16190;BME280;41754;51.498;7.540;2023-03-15T10:05:27;100501.34;;;7.16;49.32
16190;BME280;41754;51.498;7.540;2023-03-15T10:07:58;100512.78;;;6.79;48.63
16190;BME280;41754;51.498;7.540;2023-03-15T10:10:31;100507.00;;;6.86;46.71
16190;BME280;41754;51.498;7.540;2023-03-15T10:13:14;100509.94;;;7.83;44.88
16190;BME280;41754;51.498;7.540;2023-03-15T10:15:56;100511.91;;;8.35;46.53
16190;BME280;41754;51.498;7.540;2023-03-15T10:18:37;100506.78;;;7.71;42.42
16190;BME280;41754;51.498;7.540;2023-03-15T10:21:11;100518.91;;;7.10;45.01
16190;BME280;41754;51.498;7.540;2023-03-15T10:23:44;100513.72;;;6.49;46.21
16190;BME280;41754;51.498;7.540;2023-03-15T10:26:17;100512.88;;;6.59;46.47
16190;BME280;41754;51.498;7.540;2023-03-15T10:28:50;100518.00;;;6.76;45.93
16190;BME280;41754;51.498;7.540;2023-03-15T10:31:23;100517.22;;;7.98;44.15
16190;BME280;41754;51.498;7.540;2023-03-15T10:34:09;100521.66;;;8.46;43.75
16190;BME280;41754;51.498;7.540;2023-03-15T10:36:43;100526.16;;;8.61;42.18
16190;BME280;41754;51.498;7.540;2023-03-15T10:39:11;100511.66;;;9.03;38.37
16190;BME280;41754;51.498;7.540;2023-03-15T10:41:41;100514.59;;;8.88;39.75
16190;BME280;41754;51.498;7.540;2023-03-15T10:44:13;100526.09;;;8.90;41.39
16190;BME280;41754;51.498;7.540;2023-03-15T10:46:43;100525.69;;;9.40;39.74
16190;BME280;41754;51.498;7.540;2023-03-15T10:49:34;100516.84;;;9.61;38.34
16190;BME280;41754;51.498;7.540;2023-03-15T10:52:02;100527.16;;;9.70;38.22
16190;BME280;41754;51.498;7.540;2023-03-15T10:54:31;100526.16;;;8.85;39.06
16190;BME280;41754;51.498;7.540;2023-03-15T10:57:01;100536.22;;;9.70;38.42
16190;BME280;41754;51.498;7.540;2023-03-15T10:59:33;100536.81;;;8.92;37.41
16190;BME280;41754;51.498;7.540;2023-03-15T11:02:19;100538.31;;;7.63;39.99
16190;BME280;41754;51.498;7.540;2023-03-15T11:04:49;100528.50;;;7.57;39.49
16190;BME280;41754;51.498;7.540;2023-03-15T11:07:17;100526.88;;;9.15;38.95
16190;BME280;41754;51.498;7.540;2023-03-15T11:09:50;100529.81;;;12.34;32.25
16190;BME280;41754;51.498;7.540;2023-03-15T11:12:24;100523.78;;;15.00;28.21
16190;BME280;41754;51.498;7.540;2023-03-15T11:14:56;100522.50;;;14.04;26.69
16190;BME280;41754;51.498;7.540;2023-03-15T11:17:26;100526.13;;;14.43;27.52
16190;BME280;41754;51.498;7.540;2023-03-15T11:19:56;100530.41;;;14.31;27.63
16190;BME280;41754;51.498;7.540;2023-03-15T11:22:25;100524.13;;;14.99;26.57
16190;BME280;41754;51.498;7.540;2023-03-15T11:24:53;100534.09;;;15.83;25.45
16190;BME280;41754;51.498;7.540;2023-03-15T11:27:22;100528.28;;;16.54;25.56
16190;BME280;41754;51.498;7.540;2023-03-15T11:29:55;100537.63;;;13.46;28.41
16190;BME280;41754;51.498;7.540;2023-03-15T11:32:25;100539.25;;;13.99;25.97
16190;BME280;41754;51.498;7.540;2023-03-15T11:34:57;100538.38;;;15.39;22.16
16190;BME280;41754;51.498;7.540;2023-03-15T11:37:31;100545.34;;;16.20;22.54
16190;BME280;41754;51.498;7.540;2023-03-15T11:40:04;100536.00;;;15.91;23.18
16190;BME280;41754;51.498;7.540;2023-03-15T11:42:46;100541.00;;;19.16;20.58
16190;BME280;41754;51.498;7.540;2023-03-15T11:45:21;100555.84;;;18.41;21.03
16190;BME280;41754;51.498;7.540;2023-03-15T11:47:53;100557.63;;;17.01;22.55
16190;BME280;41754;51.498;7.540;2023-03-15T11:50:22;100554.22;;;14.15;26.03
16190;BME280;41754;51.498;7.540;2023-03-15T11:52:50;100563.31;;;14.24;26.15
16190;BME280;41754;51.498;7.540;2023-03-15T11:55:22;100560.41;;;14.68;26.73
16190;BME280;41754;51.498;7.540;2023-03-15T11:57:51;100553.38;;;16.00;24.40
16190;BME280;41754;51.498;7.540;2023-03-15T12:00:48;100546.88;;;16.75;22.72
16190;BME280;41754;51.498;7.540;2023-03-15T12:03:39;100552.41;;;14.28;24.76
16190;BME280;41754;51.498;7.540;2023-03-15T12:08:54;100558.06;;;17.27;23.34
16190;BME280;41754;51.498;7.540;2023-03-15T12:11:38;100548.38;;;13.56;26.42
16190;BME280;41754;51.498;7.540;2023-03-15T12:14:26;100544.78;;;11.66;28.81
16190;BME280;41754;51.498;7.540;2023-03-15T12:17:37;100548.25;;;12.25;28.13
16190;BME280;41754;51.498;7.540;2023-03-15T12:20:17;100550.00;;;9.84;30.82
16190;BME280;41754;51.498;7.540;2023-03-15T12:22:50;100552.03;;;9.59;31.32
16190;BME280;41754;51.498;7.540;2023-03-15T12:25:21;100545.66;;;9.08;29.63
16190;BME280;41754;51.498;7.540;2023-03-15T12:27:52;100551.66;;;10.17;30.43
16190;BME280;41754;51.498;7.540;2023-03-15T12:30:24;100542.47;;;18.78;21.04
16190;BME280;41754;51.498;7.540;2023-03-15T12:33:01;100545.44;;;16.11;21.13
16190;BME280;41754;51.498;7.540;2023-03-15T12:35:34;100552.78;;;17.74;19.96
16190;BME280;41754;51.498;7.540;2023-03-15T12:38:10;100544.81;;;19.43;20.37
16190;BME280;41754;51.498;7.540;2023-03-15T12:40:48;100536.19;;;20.48;18.43
16190;BME280;41754;51.498;7.540;2023-03-15T12:43:42;100525.75;;;20.68;17.78
16190;BME280;41754;51.498;7.540;2023-03-15T12:49:11;100530.72;;;21.05;17.04
16190;BME280;41754;51.498;7.540;2023-03-15T12:51:41;100526.22;;;21.49;16.39
16190;BME280;41754;51.498;7.540;2023-03-15T12:54:10;100528.44;;;21.10;15.88
16190;BME280;41754;51.498;7.540;2023-03-15T12:56:44;100533.59;;;14.51;20.04
16190;BME280;41754;51.498;7.540;2023-03-15T13:02:14;100539.41;;;10.70;25.55
16190;BME280;41754;51.498;7.540;2023-03-15T13:04:57;100543.34;;;10.22;26.90
16190;BME280;41754;51.498;7.540;2023-03-15T13:07:33;100540.19;;;14.20;22.80
16190;BME280;41754;51.498;7.540;2023-03-15T13:10:33;100536.03;;;13.62;20.67
16190;BME280;41754;51.498;7.540;2023-03-15T13:13:10;100542.88;;;11.03;24.71
16190;BME280;41754;51.498;7.540;2023-03-15T13:15:56;100540.06;;;10.20;25.85
16190;BME280;41754;51.498;7.540;2023-03-15T13:18:26;100550.81;;;9.84;27.29
16190;BME280;41754;51.498;7.540;2023-03-15T13:21:07;100540.84;;;12.34;23.08
16190;BME280;41754;51.498;7.540;2023-03-15T13:23:38;100539.09;;;10.99;24.55
16190;BME280;41754;51.498;7.540;2023-03-15T13:26:37;100542.78;;;10.53;26.01
16190;BME280;41754;51.498;7.540;2023-03-15T13:29:11;100548.56;;;10.05;26.63
16190;BME280;41754;51.498;7.540;2023-03-15T13:31:44;100555.41;;;9.89;27.21
16190;BME280;41754;51.498;7.540;2023-03-15T13:34:14;100551.44;;;9.62;27.89
16190;BME280;41754;51.498;7.540;2023-03-15T13:36:45;100565.47;;;9.23;28.25
16190;BME280;41754;51.498;7.540;2023-03-15T13:39:23;100563.31;;;11.24;27.73
16190;BME280;41754;51.498;7.540;2023-03-15T13:41:56;100548.59;;;15.89;22.16
16190;BME280;41754;51.498;7.540;2023-03-15T13:44:25;100558.50;;;13.69;23.55
16190;BME280;41754;51.498;7.540;2023-03-15T13:46:53;100554.34;;;11.32;26.22